createdAt,value
2023-01-20T00:02:04.784Z,-0.85
2023-01-20T00:04:31.672Z,-1.08
2023-01-20T00:06:59.082Z,-1.08
2023-01-20T00:09:25.833Z,-1.17
2023-01-20T00:11:56.033Z,-1.02
2023-01-20T00:14:22.776Z,-1.02
2023-01-20T00:16:50.143Z,-1.01
2023-01-20T00:19:17.504Z,-1.04
2023-01-20T00:21:44.385Z,-1.07
2023-01-20T00:24:11.689Z,-1.16
2023-01-20T00:26:39.573Z,-1.27
2023-01-20T00:29:06.584Z,-1.53
2023-01-20T00:31:33.407Z,-1.54
2023-01-20T00:34:01.131Z,-1.61
2023-01-20T00:36:31.535Z,-1.73
2023-01-20T00:39:00.055Z,-1.77
2023-01-20T00:41:30.737Z,-1.81
2023-01-20T00:46:50.154Z,-1.99
2023-01-20T00:49:18.349Z,-2.09
2023-01-20T00:51:45.099Z,-1.94
2023-01-20T00:54:12.180Z,-1.61
2023-01-20T00:56:38.930Z,-1.41
2023-01-20T00:59:09.867Z,-1.37
2023-01-20T01:01:40.224Z,-1.30
2023-01-20T01:04:07.035Z,-1.25
2023-01-20T01:06:34.479Z,-1.21
2023-01-20T01:09:05.061Z,-1.16
2023-01-20T01:11:31.854Z,-1.15
2023-01-20T01:13:59.488Z,-1.15
2023-01-20T01:16:52.040Z,-1.17
2023-01-20T01:19:19.687Z,-1.16
2023-01-20T01:21:50.620Z,-1.16
2023-01-20T01:24:17.344Z,-1.14
2023-01-20T01:26:45.095Z,-1.14
2023-01-20T01:29:11.923Z,-1.13
2023-01-20T01:31:39.558Z,-1.14
2023-01-20T01:34:06.553Z,-1.14
2023-01-20T01:36:33.482Z,-1.21
2023-01-20T01:39:00.184Z,-1.26
2023-01-20T01:41:31.051Z,-1.23
2023-01-20T01:44:12.723Z,-1.25
2023-01-20T01:46:41.059Z,-1.28
2023-01-20T01:49:17.328Z,-1.25
2023-01-20T01:51:53.115Z,-1.20
2023-01-20T01:54:24.247Z,-1.24
2023-01-20T01:56:52.847Z,-1.23
2023-01-20T01:59:23.123Z,-1.23
2023-01-20T02:01:52.688Z,-1.22
2023-01-20T02:04:28.136Z,-1.23
2023-01-20T02:07:00.145Z,-1.23
2023-01-20T02:09:30.151Z,-1.22
2023-01-20T02:12:06.020Z,-1.23
2023-01-20T02:14:47.785Z,-1.25
2023-01-20T02:17:43.478Z,-1.23
2023-01-20T02:20:58.004Z,-1.23
2023-01-20T02:24:10.453Z,-1.28
2023-01-20T02:26:49.677Z,-1.25
2023-01-20T02:29:54.947Z,-1.30
2023-01-20T02:35:55.113Z,-1.32
2023-01-20T02:38:51.170Z,-1.53
2023-01-20T02:41:31.191Z,-1.58
2023-01-20T02:44:14.601Z,-1.60
2023-01-20T02:46:58.090Z,-1.63
2023-01-20T02:49:28.055Z,-1.71
2023-01-20T02:52:14.192Z,-1.74
2023-01-20T02:54:48.229Z,-1.73
2023-01-20T02:57:21.119Z,-1.62
2023-01-20T02:59:52.893Z,-1.63
2023-01-20T03:05:51.686Z,-1.71
2023-01-20T03:08:25.304Z,-1.62
2023-01-20T03:10:57.531Z,-1.72
2023-01-20T03:13:34.419Z,-1.66
2023-01-20T03:16:21.833Z,-1.65
2023-01-20T03:18:53.158Z,-1.62
2023-01-20T03:21:21.430Z,-1.53
2023-01-20T03:23:56.637Z,-1.52
2023-01-20T03:26:24.491Z,-1.53
2023-01-20T03:28:52.108Z,-1.47
2023-01-20T03:31:31.420Z,-1.51
2023-01-20T03:34:01.083Z,-1.49
2023-01-20T03:36:30.395Z,-1.51
2023-01-20T03:38:58.945Z,-1.53
2023-01-20T03:41:55.189Z,-1.50
2023-01-20T03:44:32.572Z,-1.55
2023-01-20T03:47:08.496Z,-1.54
2023-01-20T03:49:53.910Z,-1.52
2023-01-20T03:52:47.719Z,-1.54
2023-01-20T03:55:43.319Z,-1.58
2023-01-20T03:58:27.163Z,-1.54
2023-01-20T04:00:56.672Z,-1.56
2023-01-20T04:03:30.293Z,-1.55
2023-01-20T04:06:25.545Z,-1.53
2023-01-20T04:12:16.207Z,-1.52
2023-01-20T04:14:43.038Z,-1.51
2023-01-20T04:17:10.186Z,-1.54
2023-01-20T04:19:37.050Z,-1.53
2023-01-20T04:22:39.320Z,-1.55
2023-01-20T04:25:15.759Z,-1.53
2023-01-20T04:27:43.003Z,-1.58
2023-01-20T04:30:10.510Z,-1.61
2023-01-20T04:32:37.349Z,-1.63
2023-01-20T04:35:04.332Z,-1.61
2023-01-20T04:37:31.131Z,-1.66
2023-01-20T04:39:58.291Z,-1.71
2023-01-20T04:42:25.040Z,-1.73
2023-01-20T04:44:52.161Z,-1.69
2023-01-20T04:47:18.888Z,-1.65
2023-01-20T04:49:45.701Z,-1.65
2023-01-20T04:52:12.513Z,-1.62
2023-01-20T04:54:39.333Z,-1.72
2023-01-20T04:57:06.579Z,-1.73
2023-01-20T04:59:33.462Z,-1.79
2023-01-20T05:02:00.511Z,-1.73
2023-01-20T05:04:27.337Z,-1.71
2023-01-20T05:06:54.143Z,-1.68
2023-01-20T05:09:21.059Z,-1.71
2023-01-20T05:11:47.833Z,-1.70
2023-01-20T05:14:15.169Z,-1.69
2023-01-20T05:16:42.621Z,-1.72
2023-01-20T05:19:11.632Z,-1.69
2023-01-20T05:21:38.513Z,-1.72
2023-01-20T05:24:08.812Z,-1.70
2023-01-20T05:26:36.492Z,-1.72
2023-01-20T05:29:03.817Z,-1.73
2023-01-20T05:31:30.669Z,-1.72
2023-01-20T05:33:57.606Z,-1.74
2023-01-20T05:36:25.232Z,-1.74
2023-01-20T05:38:51.999Z,-1.71
2023-01-20T05:41:18.748Z,-1.72
2023-01-20T05:43:46.826Z,-1.73
2023-01-20T05:46:13.589Z,-1.74
2023-01-20T05:48:40.446Z,-1.74
2023-01-20T05:51:07.209Z,-1.68
2023-01-20T05:53:35.689Z,-1.72
2023-01-20T05:56:05.200Z,-1.70
2023-01-20T05:58:33.515Z,-1.67
2023-01-20T06:04:03.826Z,-1.63
2023-01-20T06:06:30.841Z,-1.62
2023-01-20T06:08:59.320Z,-1.64
2023-01-20T06:11:26.843Z,-1.66
2023-01-20T06:13:53.541Z,-1.65
2023-01-20T06:16:20.901Z,-1.69
2023-01-20T06:18:47.673Z,-1.66
2023-01-20T06:21:14.837Z,-1.63
2023-01-20T06:23:41.552Z,-1.63
2023-01-20T06:26:13.885Z,-1.58
2023-01-20T06:28:41.982Z,-1.59
2023-01-20T06:31:12.943Z,-1.60
2023-01-20T06:33:43.457Z,-1.62
2023-01-20T06:36:11.784Z,-1.62
2023-01-20T06:38:39.776Z,-1.61
2023-01-20T06:41:09.306Z,-1.64
2023-01-20T06:43:36.593Z,-1.64
2023-01-20T06:46:06.022Z,-1.63
2023-01-20T06:48:33.955Z,-1.65
2023-01-20T06:51:09.683Z,-1.61
2023-01-20T06:53:37.080Z,-1.52
2023-01-20T06:56:03.945Z,-1.47
2023-01-20T06:58:32.473Z,-1.46
2023-01-20T07:01:11.338Z,-1.46
2023-01-20T07:03:39.481Z,-1.49
2023-01-20T07:06:17.243Z,-1.46
2023-01-20T07:08:45.286Z,-1.44
2023-01-20T07:11:13.211Z,-1.40
2023-01-20T07:13:41.102Z,-1.40
2023-01-20T07:16:13.097Z,-1.39
2023-01-20T07:18:42.243Z,-1.44
2023-01-20T07:21:13.291Z,-1.46
2023-01-20T07:23:40.755Z,-1.48
2023-01-20T07:26:10.868Z,-1.49
2023-01-20T07:28:39.299Z,-1.51
2023-01-20T07:31:09.063Z,-1.52
2023-01-20T07:33:37.829Z,-1.52
2023-01-20T07:36:06.135Z,-1.46
2023-01-20T07:38:35.143Z,-1.42
2023-01-20T07:41:05.234Z,-1.38
2023-01-20T07:46:26.367Z,-1.34
2023-01-20T07:48:53.523Z,-1.31
2023-01-20T07:51:21.888Z,-1.30
2023-01-20T07:53:51.302Z,-1.27
2023-01-20T07:56:21.375Z,-1.24
2023-01-20T07:58:54.280Z,-1.16
2023-01-20T08:01:27.124Z,-1.16
2023-01-20T08:04:00.885Z,-1.15
2023-01-20T08:06:31.115Z,-1.15
2023-01-20T08:09:01.978Z,-1.12
2023-01-20T08:11:30.990Z,-1.12
2023-01-20T08:13:58.443Z,-1.08
2023-01-20T08:16:50.310Z,-1.06
2023-01-20T08:19:18.469Z,-1.05
2023-01-20T08:21:45.423Z,-1.04
2023-01-20T08:24:12.311Z,-1.04
2023-01-20T08:27:04.201Z,-1.02
2023-01-20T08:29:31.103Z,-1.00
2023-01-20T08:32:02.302Z,-1.01
2023-01-20T08:34:29.764Z,-0.97
2023-01-20T08:36:57.281Z,-0.98
2023-01-20T08:39:24.183Z,-0.98
2023-01-20T08:42:17.298Z,-0.95
2023-01-20T08:44:44.748Z,-0.91
2023-01-20T08:47:12.313Z,-0.79
2023-01-20T08:50:06.721Z,-0.78
2023-01-20T08:52:37.026Z,-0.79
2023-01-20T08:55:04.302Z,-0.78
2023-01-20T08:57:32.351Z,-0.78
2023-01-20T08:59:59.088Z,-0.74
2023-01-20T09:02:26.872Z,-0.71
2023-01-20T09:04:53.833Z,-0.70
2023-01-20T09:07:20.852Z,-0.66
2023-01-20T09:09:48.835Z,-0.64
2023-01-20T09:12:15.720Z,-0.62
2023-01-20T09:14:48.556Z,-0.59
2023-01-20T09:17:16.353Z,-0.54
2023-01-20T09:19:43.058Z,-0.52
2023-01-20T09:22:16.666Z,-0.51
2023-01-20T09:24:43.467Z,-0.49
2023-01-20T09:27:14.318Z,-0.47
2023-01-20T09:29:41.244Z,-0.45
2023-01-20T09:32:09.341Z,-0.42
2023-01-20T09:34:36.789Z,-0.41
2023-01-20T09:37:31.336Z,-0.34
2023-01-20T09:40:34.859Z,-0.33
2023-01-20T09:43:06.969Z,-0.29
2023-01-20T09:45:39.350Z,-0.21
2023-01-20T09:48:16.335Z,-0.20
2023-01-20T09:50:54.390Z,-0.20
2023-01-20T09:57:02.458Z,-0.19
2023-01-20T09:59:55.209Z,-0.14
2023-01-20T10:02:32.115Z,-0.09
2023-01-20T10:05:05.534Z,-0.11
2023-01-20T10:07:51.933Z,-0.08
2023-01-20T10:10:33.127Z,-0.05
2023-01-20T10:13:33.792Z,-0.05
2023-01-20T10:16:08.599Z,-0.02
2023-01-20T10:18:42.379Z,0.02
2023-01-20T10:21:29.064Z,0.02
2023-01-20T10:24:00.914Z,0.09
2023-01-20T10:26:36.840Z,0.11
2023-01-20T10:29:10.389Z,0.09
2023-01-20T10:31:48.736Z,0.07
2023-01-20T10:34:20.363Z,0.12
2023-01-20T10:36:59.120Z,0.11
2023-01-20T10:39:35.539Z,0.14
2023-01-20T10:42:08.510Z,0.19
2023-01-20T10:44:37.413Z,0.16
2023-01-20T10:47:28.042Z,0.21
2023-01-20T10:50:27.348Z,0.27
2023-01-20T10:52:54.153Z,0.28
2023-01-20T10:55:29.923Z,0.28
2023-01-20T10:58:09.260Z,0.27
2023-01-20T11:00:37.464Z,0.26
2023-01-20T11:03:04.806Z,0.30
2023-01-20T11:05:36.648Z,0.32
2023-01-20T11:08:15.401Z,0.27
2023-01-20T11:11:15.112Z,0.28
2023-01-20T11:14:08.340Z,0.22
2023-01-20T11:16:35.334Z,0.28
2023-01-20T11:19:06.423Z,0.30
2023-01-20T11:21:36.149Z,0.25
2023-01-20T11:24:36.913Z,0.24
2023-01-20T11:27:06.482Z,0.22
2023-01-20T11:29:42.031Z,0.21
2023-01-20T11:32:36.172Z,0.23
2023-01-20T11:35:22.089Z,0.21
2023-01-20T11:37:48.963Z,0.26
2023-01-20T11:40:21.447Z,0.31
2023-01-20T11:42:50.663Z,0.33
2023-01-20T11:45:25.300Z,0.35
2023-01-20T11:48:03.079Z,0.38
2023-01-20T11:50:45.702Z,0.44
2023-01-20T11:53:39.034Z,0.51
2023-01-20T11:56:17.587Z,0.55
2023-01-20T11:58:56.484Z,0.54
2023-01-20T12:01:49.494Z,0.59
2023-01-20T12:04:53.894Z,0.60
2023-01-20T12:07:37.344Z,0.63
2023-01-20T12:10:17.734Z,0.63
2023-01-20T12:12:51.379Z,0.62
2023-01-20T12:15:31.421Z,0.73
2023-01-20T12:18:10.144Z,0.66
2023-01-20T12:20:54.869Z,0.65
2023-01-20T12:23:41.073Z,0.65
2023-01-20T12:26:10.625Z,0.65
2023-01-20T12:28:45.228Z,0.67
2023-01-20T12:31:15.688Z,0.66
2023-01-20T12:33:49.238Z,0.65
2023-01-20T12:36:57.222Z,0.66
2023-01-20T12:39:42.799Z,0.68
2023-01-20T12:42:36.073Z,0.68
2023-01-20T12:45:27.587Z,0.74
2023-01-20T12:48:13.899Z,0.74
2023-01-20T12:51:18.942Z,0.79
2023-01-20T12:54:07.449Z,0.78
2023-01-20T12:56:55.419Z,0.78
2023-01-20T12:59:43.938Z,0.79
2023-01-20T13:02:23.163Z,0.78
2023-01-20T13:05:08.867Z,0.82
2023-01-20T13:07:44.361Z,0.81
2023-01-20T13:10:37.188Z,0.80
2023-01-20T13:13:45.143Z,0.79
2023-01-20T13:16:34.817Z,0.81
2023-01-20T13:19:14.125Z,0.82
2023-01-20T13:21:40.995Z,0.82
2023-01-20T13:24:15.715Z,0.82
2023-01-20T13:26:42.959Z,0.77
2023-01-20T13:29:21.967Z,0.78
2023-01-20T13:31:51.047Z,0.76
2023-01-20T13:34:24.319Z,0.77
2023-01-20T13:37:03.197Z,0.80
2023-01-20T13:39:30.008Z,0.75
2023-01-20T13:41:56.810Z,0.75
2023-01-20T13:44:36.296Z,0.76
2023-01-20T13:47:07.544Z,0.74
2023-01-20T13:49:49.608Z,0.73
2023-01-20T13:52:48.211Z,0.78
2023-01-20T13:55:33.495Z,0.79
2023-01-20T13:58:00.262Z,0.78
2023-01-20T14:00:27.098Z,0.76
2023-01-20T14:02:53.943Z,0.74
2023-01-20T14:05:27.565Z,0.76
2023-01-20T14:07:55.208Z,0.74
2023-01-20T14:10:22.079Z,0.75
2023-01-20T14:12:48.842Z,0.76
2023-01-20T14:15:27.858Z,0.76
2023-01-20T14:17:57.706Z,0.93
2023-01-20T14:20:26.658Z,0.88
2023-01-20T14:22:53.418Z,0.83
2023-01-20T14:25:26.288Z,0.78
2023-01-20T14:27:53.276Z,0.79
2023-01-20T14:30:26.167Z,0.78
2023-01-20T14:32:53.853Z,0.76
2023-01-20T14:35:33.362Z,0.72
2023-01-20T14:38:00.889Z,0.71
2023-01-20T14:40:31.318Z,0.69
2023-01-20T14:43:16.851Z,0.69
2023-01-20T14:45:47.313Z,0.67
2023-01-20T14:48:28.357Z,0.62
2023-01-20T14:51:00.652Z,0.66
2023-01-20T14:53:27.360Z,0.72
2023-01-20T14:56:02.500Z,0.68
2023-01-20T14:58:29.553Z,0.66
2023-01-20T15:01:01.935Z,0.67
2023-01-20T15:03:30.146Z,0.64
2023-01-20T15:06:01.186Z,0.66
2023-01-20T15:08:53.403Z,0.68
2023-01-20T15:11:27.596Z,0.66
2023-01-20T15:14:00.004Z,0.64
2023-01-20T15:16:31.730Z,0.65
2023-01-20T15:19:13.480Z,0.63
2023-01-20T15:21:45.731Z,0.63
2023-01-20T15:24:19.340Z,0.62
2023-01-20T15:26:47.966Z,0.60
2023-01-20T15:29:25.847Z,0.62
2023-01-20T15:31:54.830Z,0.60
2023-01-20T15:34:22.812Z,0.61
2023-01-20T15:36:51.777Z,0.59
2023-01-20T15:39:20.962Z,0.59
2023-01-20T15:41:48.051Z,0.59
2023-01-20T15:44:15.546Z,0.59
2023-01-20T15:46:42.678Z,0.57
2023-01-20T15:49:13.094Z,0.50
2023-01-20T15:51:39.910Z,0.48
2023-01-20T15:54:07.100Z,0.51
2023-01-20T15:56:34.316Z,0.43
2023-01-20T15:59:01.826Z,0.44
2023-01-20T16:01:29.622Z,0.42
2023-01-20T16:03:57.692Z,0.42
2023-01-20T16:06:30.770Z,0.41
2023-01-20T16:09:00.207Z,0.40
2023-01-20T16:11:27.176Z,0.42
2023-01-20T16:13:53.945Z,0.44
2023-01-20T16:16:23.950Z,0.46
2023-01-20T16:18:50.924Z,0.45
2023-01-20T16:21:19.247Z,0.44
2023-01-20T16:23:46.030Z,0.48
2023-01-20T16:26:23.168Z,0.48
2023-01-20T16:28:51.131Z,0.48
2023-01-20T16:31:18.871Z,0.49
2023-01-20T16:33:46.355Z,0.48
2023-01-20T16:36:15.757Z,0.50
2023-01-20T16:38:43.434Z,0.50
2023-01-20T16:41:30.504Z,0.50
2023-01-20T16:43:58.148Z,0.51
2023-01-20T16:46:30.550Z,0.51
2023-01-20T16:48:57.811Z,0.51
2023-01-20T16:51:25.207Z,0.51
2023-01-20T16:53:53.458Z,0.50
2023-01-20T16:56:23.070Z,0.51
2023-01-20T16:58:52.441Z,0.44
2023-01-20T17:01:20.635Z,0.46
2023-01-20T17:03:48.611Z,0.42
2023-01-20T17:06:18.624Z,0.42
2023-01-20T17:08:46.952Z,0.44
2023-01-20T17:11:30.539Z,0.48
2023-01-20T17:13:59.116Z,0.44
2023-01-20T17:16:26.510Z,0.46
2023-01-20T17:18:55.857Z,0.46
2023-01-20T17:21:23.628Z,0.43
2023-01-20T17:24:09.297Z,0.44
2023-01-20T17:26:36.367Z,0.46
2023-01-20T17:29:06.024Z,0.47
2023-01-20T17:31:34.556Z,0.46
2023-01-20T17:34:01.387Z,0.48
2023-01-20T17:36:28.320Z,0.50
2023-01-20T17:38:55.411Z,0.51
2023-01-20T17:41:22.445Z,0.52
2023-01-20T17:43:49.669Z,0.47
2023-01-20T17:46:22.638Z,0.46
2023-01-20T17:48:50.863Z,0.47
2023-01-20T17:51:23.155Z,0.47
2023-01-20T17:53:52.143Z,0.48
2023-01-20T17:56:21.414Z,0.44
2023-01-20T17:58:49.838Z,0.47
2023-01-20T18:01:27.173Z,0.43
2023-01-20T18:03:57.092Z,0.40
2023-01-20T18:06:25.875Z,0.42
2023-01-20T18:08:58.291Z,0.44
2023-01-20T18:11:27.642Z,0.40
2023-01-20T18:13:56.754Z,0.39
2023-01-20T18:16:28.946Z,0.41
2023-01-20T18:18:57.053Z,0.42
2023-01-20T18:21:27.950Z,0.49
2023-01-20T18:23:55.421Z,0.48
2023-01-20T18:26:24.145Z,0.48
2023-01-20T18:28:55.139Z,0.51
2023-01-20T18:31:24.347Z,0.49
2023-01-20T18:33:57.422Z,0.47
2023-01-20T18:36:37.660Z,0.47
2023-01-20T18:39:13.861Z,0.49
2023-01-20T18:41:42.057Z,0.51
2023-01-20T18:44:09.983Z,0.56
2023-01-20T18:46:40.916Z,0.54
2023-01-20T18:49:09.959Z,0.54
2023-01-20T18:51:37.292Z,0.53
2023-01-20T18:54:08.250Z,0.54
2023-01-20T18:56:37.355Z,0.52
2023-01-20T18:59:06.712Z,0.54
2023-01-20T19:01:36.439Z,0.55
2023-01-20T19:04:05.862Z,0.57
2023-01-20T19:06:37.437Z,0.55
2023-01-20T19:09:06.323Z,0.50
2023-01-20T19:11:36.584Z,0.52
2023-01-20T19:14:04.351Z,0.48
2023-01-20T19:16:36.483Z,0.44
2023-01-20T19:19:06.229Z,0.42
2023-01-20T19:21:34.748Z,0.44
2023-01-20T19:24:03.769Z,0.43
2023-01-20T19:26:31.227Z,0.38
2023-01-20T19:29:07.094Z,0.38
2023-01-20T19:31:37.827Z,0.42
2023-01-20T19:34:06.889Z,0.38
2023-01-20T19:36:34.738Z,0.38
2023-01-20T19:39:06.131Z,0.39
2023-01-20T19:41:34.003Z,0.37
2023-01-20T19:44:03.159Z,0.37
2023-01-20T19:46:33.236Z,0.36
2023-01-20T19:49:01.237Z,0.40
2023-01-20T19:51:29.637Z,0.37
2023-01-20T19:53:58.644Z,0.36
2023-01-20T19:56:29.124Z,0.36
2023-01-20T19:58:57.370Z,0.30
2023-01-20T20:01:31.661Z,0.21
2023-01-20T20:04:00.350Z,0.20
2023-01-20T20:06:36.893Z,0.07
2023-01-20T20:09:08.394Z,-0.02
2023-01-20T20:11:37.267Z,-0.08
2023-01-20T20:14:07.368Z,-0.13
2023-01-20T20:16:37.578Z,-0.13
2023-01-20T20:19:09.276Z,-0.23
2023-01-20T20:21:36.797Z,-0.17
2023-01-20T20:24:04.798Z,-0.26
2023-01-20T20:26:35.429Z,-0.26
2023-01-20T20:29:04.937Z,-0.28
2023-01-20T20:31:32.895Z,-0.35
2023-01-20T20:34:01.876Z,-0.35
2023-01-20T20:36:29.950Z,-0.35
2023-01-20T20:38:58.883Z,-0.38
2023-01-20T20:41:27.865Z,-0.36
2023-01-20T20:43:55.415Z,-0.37
2023-01-20T20:46:23.172Z,-0.36
2023-01-20T20:49:00.205Z,-0.39
2023-01-20T20:51:30.183Z,-0.42
2023-01-20T20:54:01.385Z,-0.49
2023-01-20T20:56:29.446Z,-0.43
2023-01-20T20:59:01.813Z,-0.55
2023-01-20T21:01:34.180Z,-0.56
2023-01-20T21:04:05.513Z,-0.53
2023-01-20T21:06:33.922Z,-0.57
2023-01-20T21:09:04.264Z,-0.55
2023-01-20T21:11:32.604Z,-0.62
2023-01-20T21:14:00.336Z,-0.64
2023-01-20T21:16:28.166Z,-0.59
2023-01-20T21:18:57.247Z,-0.58
2023-01-20T21:21:25.185Z,-0.60
2023-01-20T21:23:54.619Z,-0.61
2023-01-20T21:26:23.591Z,-0.60
2023-01-20T21:28:51.331Z,-0.61
2023-01-20T21:31:21.571Z,-0.64
2023-01-20T21:33:53.320Z,-0.62
2023-01-20T21:36:21.175Z,-0.58
2023-01-20T21:38:48.325Z,-0.51
2023-01-20T21:41:17.498Z,-0.49
2023-01-20T21:43:46.331Z,-0.49
2023-01-20T21:46:13.599Z,-0.51
2023-01-20T21:48:40.949Z,-0.51
2023-01-20T21:51:11.199Z,-0.51
2023-01-20T21:53:38.331Z,-0.51
2023-01-20T21:56:05.469Z,-0.57
2023-01-20T21:58:32.217Z,-0.57
2023-01-20T22:00:59.175Z,-0.59
2023-01-20T22:03:25.954Z,-0.62
2023-01-20T22:05:52.904Z,-0.62
2023-01-20T22:08:19.806Z,-0.63
2023-01-20T22:10:55.516Z,-0.63
2023-01-20T22:13:22.638Z,-0.69
2023-01-20T22:15:49.423Z,-0.65
2023-01-20T22:18:16.906Z,-0.66
2023-01-20T22:20:43.655Z,-0.70
2023-01-20T22:23:10.436Z,-0.69
2023-01-20T22:25:37.387Z,-0.67
2023-01-20T22:28:04.405Z,-0.66
2023-01-20T22:30:31.258Z,-0.68
2023-01-20T22:32:58.180Z,-0.70
2023-01-20T22:35:24.993Z,-0.70
2023-01-20T22:37:52.174Z,-0.69
2023-01-20T22:40:19.031Z,-0.67
2023-01-20T22:42:45.854Z,-0.72
2023-01-20T22:45:12.857Z,-0.71
2023-01-20T22:47:39.779Z,-0.70
2023-01-20T22:50:06.828Z,-0.73
2023-01-20T22:52:33.738Z,-0.70
2023-01-20T22:55:00.574Z,-0.69
2023-01-20T22:57:30.514Z,-0.68
2023-01-20T22:59:57.341Z,-0.73
2023-01-20T23:02:24.204Z,-0.71
2023-01-20T23:04:51.077Z,-0.75
2023-01-20T23:07:18.477Z,-0.74
2023-01-20T23:09:45.667Z,-0.78
2023-01-20T23:12:12.726Z,-0.80
2023-01-20T23:14:39.580Z,-0.83
2023-01-20T23:17:06.423Z,-0.85
2023-01-20T23:19:33.373Z,-0.88
2023-01-20T23:22:00.190Z,-0.92
2023-01-20T23:24:27.202Z,-0.96
2023-01-20T23:26:54.001Z,-0.95
2023-01-20T23:29:20.865Z,-0.99
2023-01-20T23:31:47.727Z,-1.02
2023-01-20T23:34:14.734Z,-1.01
2023-01-20T23:36:41.589Z,-1.00
2023-01-20T23:39:09.694Z,-1.04
2023-01-20T23:41:36.490Z,-1.09
2023-01-20T23:44:03.421Z,-1.17
2023-01-20T23:46:30.241Z,-1.06
2023-01-20T23:48:57.048Z,-1.11
2023-01-20T23:51:23.955Z,-1.12
2023-01-20T23:53:50.864Z,-1.14
2023-01-20T23:56:20.614Z,-1.14
2023-01-20T23:58:48.132Z,-1.19
